Time;durP1;ratioP1;P1;durP2;ratioP2;P2;SDS_P1;SDS_P2;PMS_P1;PMS_P2;Temp;Humidity;BMP_temperature;BMP_pressure;BME280_temperature;BME280_humidity;BME280_pressure;Samples;Min_cycle;Max_cycle;Signal;HPM_P1;HPM_P2
2023/05/09 00:05:36;;;;;;;21.00;14.00;;;;;;;1.95;71.45;100722.90;436968;1251;139815;-61
2023/05/09 00:15:43;;;;;;;21.70;15.60;;;;;;;1.83;71.87;100713.35;436611;1251;139963;-62
2023/05/09 00:25:47;;;;;;;;;;;;;;;1.72;72.28;100707.77;436908;1254;139779;-60
2023/05/09 00:35:53;;;;;;;22.70;15.00;;;;;;;1.62;72.90;100707.34;437159;1250;126320;-61
2023/05/09 00:45:59;;;;;;;18.20;12.50;;;;;;;1.49;72.83;100707.29;436751;1250;140600;-60
2023/05/09 00:56:07;;;;;;;22.60;14.30;;;;;;;1.33;72.79;100703.95;436571;1250;140891;-59
2023/05/09 01:06:22;;;;;;;15.10;11.80;;;;;;;1.20;73.27;100696.98;436805;1254;140234;-60
2023/05/09 01:16:35;;;;;;;17.40;12.00;;;;;;;1.10;73.57;100694.46;437089;1255;141057;-60
2023/05/09 01:26:52;;;;;;;23.40;16.70;;;;;;;0.95;73.62;100688.88;437990;1251;139858;-60
2023/05/09 01:37:01;;;;;;;19.50;12.50;;;;;;;0.91;74.39;100675.13;436849;1251;139430;-60
2023/05/09 01:47:07;;;;;;;15.70;12.00;;;;;;;0.88;75.01;100675.30;436767;1250;140186;-59
2023/05/09 01:57:14;;;;;;;17.60;13.40;;;;;;;0.78;74.97;100672.45;436769;1251;140030;-59
2023/05/09 02:07:18;;;;;;;;;;;;;;;0.67;74.90;100669.05;436492;1250;140271;-64
2023/05/09 02:17:24;;;;;;;14.10;9.50;;;;;;;0.68;75.28;100659.73;436408;1251;125985;-59
2023/05/09 02:27:30;;;;;;;14.60;11.10;;;;;;;1.00;75.02;100663.85;436488;1254;139463;-59
2023/05/09 02:37:37;;;;;;;17.30;11.90;;;;;;;1.01;74.66;100675.39;436710;1251;139263;-60
2023/05/09 02:47:42;;;;;;;21.40;13.00;;;;;;;0.90;74.99;100671.85;436996;1255;142303;-61
2023/05/09 02:57:48;;;;;;;21.10;13.30;;;;;;;0.76;75.19;100666.94;436641;1255;139714;-60
2023/05/09 03:08:06;;;;;;;19.10;12.30;;;;;;;0.70;75.63;100661.29;436246;1255;139392;-60
2023/05/09 03:18:12;;;;;;;20.50;13.60;;;;;;;0.68;75.54;100666.27;436155;1250;141385;-60
2023/05/09 03:28:18;;;;;;;20.30;14.80;;;;;;;0.77;75.38;100664.52;436746;1250;140553;-61
2023/05/09 03:38:24;;;;;;;17.20;13.30;;;;;;;0.94;75.87;100672.33;436491;1251;139986;-60
2023/05/09 03:48:29;;;;;;;13.10;9.40;;;;;;;1.20;75.97;100671.11;436195;1254;140798;-60
2023/05/09 03:58:35;;;;;;;15.20;8.50;;;;;;;1.87;75.53;100668.59;437710;1255;139437;-61
2023/05/09 04:08:42;;;;;;;14.30;8.50;;;;;;;2.78;74.23;100671.95;436520;1256;139082;-59
2023/05/09 04:18:47;;;;;;;8.40;7.10;;;;;;;4.91;73.14;100662.63;436605;1255;139809;-61
2023/05/09 04:28:53;;;;;;;10.00;6.70;;;;;;;12.86;63.22;100652.67;436423;1256;139638;-59
2023/05/09 04:38:59;;;;;;;8.40;6.40;;;;;;;11.50;55.16;100658.81;436466;1253;140831;-60
2023/05/09 04:49:04;;;;;;;11.20;7.00;;;;;;;9.11;56.12;100658.27;436368;1254;139476;-59
2023/05/09 04:59:10;;;;;;;7.60;5.70;;;;;;;13.63;55.78;100651.92;436189;1255;139168;-62
2023/05/09 05:09:16;;;;;;;7.20;5.60;;;;;;;22.46;45.17;100640.75;436605;1256;140144;-60
2023/05/09 05:19:22;;;;;;;6.50;5.10;;;;;;;27.05;36.40;100631.41;436439;1256;139070;-58
2023/05/09 05:29:27;;;;;;;5.30;4.60;;;;;;;29.02;31.23;100624.52;436134;1257;140538;-59
2023/05/09 05:39:33;;;;;;;6.10;5.00;;;;;;;30.78;28.41;100630.83;436646;1255;138955;-59
2023/05/09 05:49:39;;;;;;;3.90;3.50;;;;;;;32.51;25.68;100624.34;436223;1255;139072;-59
2023/05/09 05:59:46;;;;;;;4.00;3.40;;;;;;;34.66;23.39;100616.44;436905;1251;139336;-60
2023/05/09 06:09:52;;;;;;;3.40;3.10;;;;;;;35.81;20.74;100612.89;437123;1251;140283;-59
2023/05/09 06:19:57;;;;;;;4.50;2.60;;;;;;;34.97;20.00;100605.83;436331;1254;139570;-59
2023/05/09 06:30:04;;;;;;;2.80;2.60;;;;;;;34.66;19.01;100604.91;436410;1254;138644;-61
2023/05/09 06:40:28;;;;;;;3.40;3.20;;;;;;;34.70;18.52;100604.34;436871;1252;139159;-60
2023/05/09 06:50:34;;;;;;;2.80;2.10;;;;;;;33.84;17.86;100595.70;437072;1254;138459;-61
2023/05/09 07:00:40;;;;;;;4.00;3.40;;;;;;;34.36;17.69;100588.54;436607;1254;138714;-60
2023/05/09 07:10:46;;;;;;;1.90;1.80;;;;;;;34.61;16.76;100592.20;436521;1252;139518;-59
2023/05/09 07:20:51;;;;;;;2.20;2.00;;;;;;;34.47;16.42;100577.42;436167;1254;175278;-59
2023/05/09 07:30:57;;;;;;;2.40;1.60;;;;;;;35.52;15.93;100571.34;436597;1254;138632;-59
2023/05/09 07:41:03;;;;;;;1.80;1.70;;;;;;;34.33;15.09;100565.16;436578;1254;139240;-59
2023/05/09 07:51:09;;;;;;;1.40;1.30;;;;;;;33.16;15.78;100564.35;436666;1251;139192;-59
2023/05/09 08:01:15;;;;;;;1.60;1.40;;;;;;;32.69;15.50;100548.36;436666;1251;138477;-59
2023/05/09 08:11:20;;;;;;;2.20;2.00;;;;;;;29.12;16.77;100539.85;436469;1251;140027;-60
2023/05/09 08:21:26;;;;;;;3.00;2.70;;;;;;;22.45;21.04;100543.52;436188;1254;141440;-60
2023/05/09 08:31:32;;;;;;;3.50;2.20;;;;;;;18.69;24.40;100543.05;436878;1254;139694;-61
2023/05/09 08:41:38;;;;;;;3.50;2.30;;;;;;;17.69;26.27;100527.40;437010;1251;139361;-59
2023/05/09 08:51:45;;;;;;;2.80;1.40;;;;;;;17.46;26.55;100514.98;437201;1251;138795;-61
2023/05/09 09:01:53;;;;;;;4.10;2.20;;;;;;;16.99;27.61;100506.90;436716;1254;139169;-59
2023/05/09 09:11:59;;;;;;;2.40;1.70;;;;;;;16.95;28.35;100504.21;436449;1252;138791;-59
2023/05/09 09:22:06;;;;;;;3.80;1.30;;;;;;;16.33;28.43;100503.81;436504;1251;140361;-59
2023/05/09 09:32:11;;;;;;;2.00;1.70;;;;;;;15.73;28.82;100499.82;437023;1254;139676;-60
2023/05/09 09:42:17;;;;;;;2.30;1.60;;;;;;;15.57;28.82;100492.27;437011;1254;139173;-60
2023/05/09 09:52:25;;;;;;;2.30;1.90;;;;;;;15.19;28.50;100494.91;436537;1250;139280;-59
2023/05/09 10:02:32;;;;;;;1.70;1.60;;;;;;;15.16;29.45;100489.64;436581;1251;139623;-60
2023/05/09 10:12:39;;;;;;;4.00;2.10;;;;;;;14.97;30.12;100485.62;436429;1250;139708;-60
2023/05/09 10:22:45;;;;;;;1.60;1.40;;;;;;;14.69;30.79;100468.98;436825;1251;140376;-60
2023/05/09 10:32:54;;;;;;;1.90;1.80;;;;;;;14.50;30.91;100451.05;437032;1250;139947;-60
2023/05/09 10:43:00;;;;;;;2.30;1.70;;;;;;;14.32;31.02;100444.45;436940;1251;139195;-61
2023/05/09 10:53:15;;;;;;;1.70;1.50;;;;;;;14.25;30.78;100429.60;436863;1251;138935;-63
2023/05/09 11:03:23;;;;;;;1.40;1.20;;;;;;;14.25;30.93;100400.89;436769;1251;138910;-60
2023/05/09 11:13:32;;;;;;;1.80;1.30;;;;;;;14.39;30.85;100396.78;436441;1254;138669;-60
2023/05/09 11:23:38;;;;;;;4.30;1.30;;;;;;;14.50;30.47;100391.29;436392;1251;140469;-60
2023/05/09 11:33:46;;;;;;;2.10;1.40;;;;;;;14.42;30.36;100374.77;436414;1251;139271;-61
2023/05/09 11:43:55;;;;;;;2.10;1.80;;;;;;;14.39;30.44;100362.64;436569;1254;138629;-60
2023/05/09 11:54:00;;;;;;;1.70;1.60;;;;;;;14.39;30.74;100344.80;436483;1254;139748;-60
2023/05/09 12:04:07;;;;;;;3.80;1.50;;;;;;;14.41;30.85;100326.22;436417;1250;139770;-60
2023/05/09 12:14:26;;;;;;;2.90;1.20;;;;;;;14.47;30.56;100326.20;436626;1254;138887;-59
2023/05/09 12:24:34;;;;;;;2.20;1.50;;;;;;;14.60;30.73;100302.51;436623;1251;139576;-59
2023/05/09 12:34:41;;;;;;;2.30;2.10;;;;;;;14.67;30.72;100284.46;437212;1251;138609;-60
2023/05/09 12:44:50;;;;;;;3.20;2.20;;;;;;;14.62;30.73;100274.76;436924;1251;138476;-61
2023/05/09 12:55:04;;;;;;;4.00;2.40;;;;;;;14.68;30.99;100264.14;436745;1254;140031;-59
2023/05/09 13:05:14;;;;;;;4.40;2.20;;;;;;;14.77;31.25;100242.84;436421;1254;139229;-60
2023/05/09 13:15:22;;;;;;;4.10;2.00;;;;;;;14.85;31.22;100232.80;436543;1251;138724;-59
2023/05/09 13:25:27;;;;;;;;;;;;;;;14.90;31.53;100213.58;436268;1251;139132;-59
2023/05/09 13:35:33;;;;;;;2.40;1.90;;;;;;;14.98;31.88;100203.56;436536;1252;125840;-60
2023/05/09 13:45:39;;;;;;;2.50;1.30;;;;;;;15.09;31.71;100194.80;436873;1251;139006;-60
2023/05/09 13:55:46;;;;;;;1.70;1.60;;;;;;;15.06;31.50;100184.23;436708;1251;139584;-60
2023/05/09 14:05:52;;;;;;;1.70;1.40;;;;;;;15.00;31.44;100179.91;436735;1250;140033;-60
2023/05/09 14:15:58;;;;;;;3.50;2.60;;;;;;;15.14;31.76;100160.16;435728;1251;140246;-60
2023/05/09 14:26:03;;;;;;;2.60;1.40;;;;;;;15.21;31.89;100145.93;436231;1251;138720;-60
2023/05/09 14:36:10;;;;;;;4.00;1.80;;;;;;;15.19;31.78;100141.34;436165;1250;140285;-60
2023/05/09 14:46:16;;;;;;;1.70;1.60;;;;;;;15.22;31.70;100136.32;435976;1253;140178;-59
2023/05/09 14:56:22;;;;;;;2.00;1.70;;;;;;;15.26;31.81;100121.23;436958;1250;140797;-60
2023/05/09 15:06:29;;;;;;;2.90;1.70;;;;;;;15.26;31.58;100112.19;436579;1254;142157;-58
2023/05/09 15:16:35;;;;;;;2.20;1.20;;;;;;;15.23;31.03;100107.14;436993;1250;140757;-61
2023/05/09 15:26:40;;;;;;;3.50;1.50;;;;;;;15.17;31.16;100085.23;436360;1250;139740;-61
2023/05/09 15:36:46;;;;;;;1.60;1.50;;;;;;;15.13;31.25;100070.85;436647;1253;140282;-59
2023/05/09 15:46:53;;;;;;;1.70;1.30;;;;;;;15.19;31.21;100054.39;436564;1251;140834;-60
2023/05/09 15:56:59;;;;;;;1.20;1.10;;;;;;;15.14;31.17;100056.16;436848;1251;140595;-59
2023/05/09 16:07:05;;;;;;;3.00;1.60;;;;;;;15.07;31.23;100047.67;436529;1251;140522;-59
2023/05/09 16:17:11;;;;;;;2.40;1.60;;;;;;;15.00;31.38;100036.37;435469;1251;139483;-60
2023/05/09 16:27:17;;;;;;;3.50;1.50;;;;;;;14.94;31.82;100019.95;435821;1254;140393;-60
2023/05/09 16:37:23;;;;;;;3.80;1.70;;;;;;;14.88;31.89;100007.15;436261;1251;140660;-59
2023/05/09 16:47:28;;;;;;;3.20;1.90;;;;;;;14.75;32.27;100003.39;437485;1251;139935;-61
2023/05/09 16:57:34;;;;;;;4.30;2.10;;;;;;;15.22;32.68;99998.20;436796;1251;139779;-60
2023/05/09 17:07:40;;;;;;;2.40;1.70;;;;;;;15.29;31.83;99994.54;436807;1251;138790;-61
2023/05/09 17:17:46;;;;;;;3.50;2.10;;;;;;;14.80;32.67;99986.22;436792;1254;139070;-61
2023/05/09 17:27:52;;;;;;;2.70;2.40;;;;;;;14.61;33.24;99983.05;436661;1250;139892;-61
2023/05/09 17:37:58;;;;;;;2.50;2.10;;;;;;;14.12;34.23;99974.48;437051;1254;138847;-59
2023/05/09 17:48:03;;;;;;;3.60;2.70;;;;;;;13.67;34.86;99974.81;436753;1253;139795;-60
2023/05/09 17:58:10;;;;;;;4.40;2.10;;;;;;;13.27;35.84;99979.16;436562;1250;139346;-60
2023/05/09 18:08:16;;;;;;;3.40;2.30;;;;;;;12.88;36.43;99984.95;436493;1254;138313;-60
2023/05/09 18:18:22;;;;;;;3.70;2.70;;;;;;;12.52;37.14;99983.27;436314;1254;138438;-60
2023/05/09 18:28:28;;;;;;;3.30;2.30;;;;;;;12.18;37.87;99979.00;436790;1250;138449;-60
2023/05/09 18:38:36;;;;;;;5.10;3.10;;;;;;;11.79;38.56;99987.39;436436;1251;139106;-59
2023/05/09 18:48:42;;;;;;;5.00;3.20;;;;;;;11.56;39.05;99995.28;436405;1251;139235;-59
2023/05/09 18:58:49;;;;;;;6.90;3.20;;;;;;;11.29;39.60;100001.67;439563;1251;138967;-59
2023/05/09 19:08:55;;;;;;;4.90;3.30;;;;;;;11.00;40.10;100000.20;436743;1251;139014;-60
2023/05/09 19:19:02;;;;;;;4.40;3.70;;;;;;;10.75;40.45;100003.58;436541;1251;138475;-60
2023/05/09 19:29:08;;;;;;;4.10;3.60;;;;;;;10.56;41.01;99998.20;436400;1251;139239;-59
2023/05/09 19:39:14;;;;;;;6.30;3.70;;;;;;;10.26;41.52;99991.77;436194;1251;140804;-60
2023/05/09 19:49:20;;;;;;;5.10;3.40;;;;;;;10.04;42.13;99984.61;436534;1254;138633;-61
2023/05/09 19:59:26;;;;;;;6.20;3.70;;;;;;;9.85;42.58;99987.92;436634;1251;140199;-60
2023/05/09 20:09:32;;;;;;;7.20;4.10;;;;;;;9.66;42.95;99983.34;436430;1251;139104;-64
2023/05/09 20:19:38;;;;;;;4.30;3.90;;;;;;;9.55;43.48;99984.08;436717;1251;138147;-66
2023/05/09 20:29:44;;;;;;;5.00;4.50;;;;;;;9.43;43.60;99985.61;436950;1251;139511;-64
2023/05/09 20:39:50;;;;;;;4.00;3.00;;;;;;;9.35;44.27;99983.00;436809;1255;139462;-64
2023/05/09 20:49:59;;;;;;;5.00;3.60;;;;;;;9.22;44.63;99983.04;436719;1254;139469;-64
2023/05/09 21:00:07;;;;;;;4.50;3.70;;;;;;;9.03;45.57;99976.47;436802;1256;138481;-65
2023/05/09 21:10:13;;;;;;;7.20;4.00;;;;;;;8.86;46.10;99974.68;436968;1256;139318;-65
2023/05/09 21:20:19;;;;;;;6.20;3.50;;;;;;;8.71;46.39;99965.49;436756;1256;138352;-64
2023/05/09 21:30:25;;;;;;;5.70;4.00;;;;;;;8.58;47.02;99971.04;436567;1254;139185;-65
2023/05/09 21:40:31;;;;;;;3.80;3.10;;;;;;;8.45;47.49;99969.36;436636;1251;138522;-65
2023/05/09 21:50:38;;;;;;;6.00;4.30;;;;;;;8.35;47.72;99962.20;437618;1251;138889;-65
2023/05/09 22:00:43;;;;;;;6.20;3.90;;;;;;;8.20;48.06;99959.25;436902;1250;139248;-65
2023/05/09 22:10:49;;;;;;;3.10;2.80;;;;;;;8.08;48.51;99957.54;436965;1254;138189;-65
2023/05/09 22:20:55;;;;;;;8.10;4.70;;;;;;;7.89;48.79;99953.02;436880;1254;139054;-64
2023/05/09 22:31:02;;;;;;;4.30;3.00;;;;;;;7.73;49.48;99953.92;436961;1251;138120;-65
2023/05/09 22:41:08;;;;;;;5.20;3.60;;;;;;;7.57;49.65;99945.77;437206;1250;140082;-64
2023/05/09 22:51:14;;;;;;;5.50;3.80;;;;;;;7.49;50.24;99944.42;436863;1255;138619;-65
2023/05/09 23:01:20;;;;;;;4.40;3.70;;;;;;;7.37;50.61;99937.44;436711;1254;137994;-65
2023/05/09 23:11:26;;;;;;;5.80;3.60;;;;;;;7.23;50.71;99935.46;436526;1254;138113;-66
2023/05/09 23:21:32;;;;;;;4.80;3.30;;;;;;;7.07;51.58;99924.13;436910;1254;138913;-65
2023/05/09 23:31:38;;;;;;;5.30;3.90;;;;;;;6.89;52.01;99919.18;436635;1251;139204;-63
2023/05/09 23:41:44;;;;;;;5.60;3.40;;;;;;;6.77;52.24;99914.63;436302;1254;138581;-64
2023/05/09 23:51:49;;;;;;;8.00;3.90;;;;;;;6.68;52.53;99908.41;436162;1256;138360;-64
